Airfield :
LOGIN :

Register | Disclaimer

   EN    FR    IT 

 










Legend :    VFR   Marginal VFR   IFR   Intensive IFR   Very Intensive IFR
Visi :
Ceiling :
>= 8 km
>= 3000ft
5 to 8 km
1000 to 3000 ft
1500m to 5 km
500 to 1000 ft
800 to 1500m
200 to 500 ft
< 800m
< 200 ft
Symbols :   Thunderstorms  Fog  Heavy snow  Heavy precipitations  Wind > 20 kt
SIGMETs :     Misc.  Thunderstorms  Icing  Turbulence  Mountain Waves  Volcanic Ashes







- Airport Elevation : 27 ft
- IATA code : PMI


LEPA - Palma de Mallorca

CURRENT METAR :
  • 200630Z 02006KT 330V070 9999 FEW028 22/18 Q1012 NOSIG

EXPIRED METARs :
  • 200600Z 04005KT 360V070 9999 FEW028 21/18 Q1012 NOSIG
  • 200530Z 06005KT 9000 FEW025 20/18 Q1012 NOSIG
  • 200500Z VRB01KT 9000 FEW025 19/17 Q1012 NOSIG
  • 200430Z 00000KT 8000 OVC015 20/16 Q1012 NOSIG
  • 200400Z VRB01KT 8000 OVC015 20/17 Q1012 NOSIG

TAF TAF LEPA
Valid from the 20 at 06:00 until the 21 at 06:00 UTC


200500Z 2006/2106 VRB03KT 9999 SCT008 TX28/2012Z TN16/2106Z
PROB30
TEMPO 2006/2012 SCT010 FEW080TCU
BECMG 2008/2010 22010KT
BECMG 2018/2020 VRB03KT
No reported NOTAMs for that airfield.



MET'MAP, your aeronautical weather chart ! - Copyright ORBIFLY December 2007 - Disclaimer

ORBIFLY MET'MAP TEAM :

Programming & Development : Alexandra Zaïnal
Concept & Development : Baudouin d'Aumeries
Co-Development & Prog : Marc-Olivier Méhu
Technical & hardware support : Manuel Goepfert

Contact : metmap@orbifly.com




SOURCES & CREDITS :

   NOAA